createdAt,value
2023-03-04T00:03:40.075Z,66.09
2023-03-04T00:08:41.560Z,65.52
2023-03-04T00:13:43.060Z,66.09
2023-03-04T00:18:44.617Z,66.35
2023-03-04T00:23:46.166Z,66.16
2023-03-04T00:28:47.716Z,66.12
2023-03-04T00:33:49.420Z,66.25
2023-03-04T00:38:50.917Z,66.85
2023-03-04T00:43:52.450Z,66.53
2023-03-04T00:48:53.976Z,67.02
2023-03-04T00:53:55.462Z,66.95
2023-03-04T00:58:57.002Z,67.10
2023-03-04T01:03:58.472Z,67.57
2023-03-04T01:09:01.522Z,67.12
2023-03-04T01:14:02.996Z,66.68
2023-03-04T01:19:05.615Z,67.03
2023-03-04T01:24:07.236Z,66.42
2023-03-04T01:29:08.764Z,66.24
2023-03-04T01:34:10.272Z,66.50
2023-03-04T01:39:11.804Z,66.68
2023-03-04T01:44:13.603Z,66.59
2023-03-04T01:49:15.925Z,66.79
2023-03-04T01:54:17.929Z,66.59
2023-03-04T01:59:22.370Z,67.37
2023-03-04T02:04:26.664Z,66.76
2023-03-04T02:09:29.667Z,66.30
2023-03-04T02:14:31.364Z,67.34
2023-03-04T02:19:49.619Z,67.23
2023-03-04T02:25:03.186Z,67.10
2023-03-04T02:30:06.208Z,66.50
2023-03-04T02:35:16.039Z,66.44
2023-03-04T02:40:23.061Z,65.28
2023-03-04T02:45:49.592Z,65.14
2023-03-04T02:50:53.320Z,66.09
2023-03-04T02:55:54.765Z,66.51
2023-03-04T03:00:58.832Z,66.91
2023-03-04T03:06:02.973Z,66.82
2023-03-04T03:11:05.141Z,66.83
2023-03-04T03:16:08.443Z,67.02
2023-03-04T03:21:09.982Z,66.27
2023-03-04T03:26:11.870Z,65.38
2023-03-04T03:31:13.823Z,65.33
2023-03-04T03:36:15.402Z,64.95
2023-03-04T03:41:16.911Z,64.62
2023-03-04T03:46:18.452Z,65.42
2023-03-04T03:51:19.914Z,65.11
2023-03-04T03:56:21.442Z,64.98
2023-03-04T04:01:22.968Z,64.84
2023-03-04T04:06:24.505Z,65.73
2023-03-04T04:11:26.053Z,66.62
2023-03-04T04:16:27.684Z,65.70
2023-03-04T04:21:29.223Z,65.66
2023-03-04T04:26:30.758Z,66.35
2023-03-04T04:31:32.244Z,67.00
2023-03-04T04:36:33.742Z,66.67
2023-03-04T04:41:38.984Z,66.54
2023-03-04T04:46:41.185Z,65.59
2023-03-04T04:51:42.736Z,66.32
2023-03-04T04:56:44.244Z,65.96
2023-03-04T05:01:45.788Z,65.95
2023-03-04T05:06:47.270Z,65.90
2023-03-04T05:11:49.140Z,66.12
2023-03-04T05:16:50.693Z,65.95
2023-03-04T05:21:52.244Z,65.85
2023-03-04T05:26:53.910Z,66.14
2023-03-04T05:31:55.469Z,66.47
2023-03-04T05:36:56.976Z,67.40
2023-03-04T05:41:58.428Z,67.16
2023-03-04T05:46:59.926Z,67.03
2023-03-04T05:52:01.430Z,66.38
2023-03-04T05:57:02.952Z,66.97
2023-03-04T06:02:04.617Z,66.71
2023-03-04T06:07:06.168Z,66.75
2023-03-04T06:12:07.812Z,67.25
2023-03-04T06:17:09.310Z,67.63
2023-03-04T06:22:11.411Z,67.75
2023-03-04T06:27:12.946Z,67.76
2023-03-04T06:32:14.474Z,68.05
2023-03-04T06:37:16.272Z,67.99
2023-03-04T06:42:17.984Z,68.04
2023-03-04T06:47:19.444Z,67.45
2023-03-04T06:52:21.019Z,68.26
2023-03-04T06:57:22.507Z,67.60
2023-03-04T07:02:23.967Z,66.86
2023-03-04T07:07:25.457Z,67.06
2023-03-04T07:12:26.998Z,67.72
2023-03-04T07:17:28.469Z,68.07
2023-03-04T07:22:29.947Z,67.92
2023-03-04T07:27:31.413Z,68.26
2023-03-04T07:32:33.361Z,68.35
2023-03-04T07:37:34.868Z,68.57
2023-03-04T07:42:36.430Z,68.82
2023-03-04T07:47:44.012Z,68.94
2023-03-04T07:52:47.640Z,69.44
2023-03-04T07:57:49.058Z,68.84
2023-03-04T08:02:50.565Z,68.87
2023-03-04T08:07:52.103Z,68.97
2023-03-04T08:12:53.618Z,68.69
2023-03-04T08:17:55.056Z,68.80
2023-03-04T08:22:56.518Z,68.42
2023-03-04T08:27:58.990Z,68.54
2023-03-04T08:33:02.073Z,68.49
2023-03-04T08:38:03.628Z,68.88
2023-03-04T08:43:05.133Z,68.69
2023-03-04T08:48:06.840Z,68.79
2023-03-04T08:53:08.355Z,68.76
2023-03-04T08:58:11.401Z,68.77
2023-03-04T09:03:13.034Z,67.82
2023-03-04T09:08:15.868Z,67.72
2023-03-04T09:13:17.318Z,67.62
2023-03-04T09:18:21.016Z,67.42
2023-03-04T09:23:23.225Z,67.12
2023-03-04T09:28:24.716Z,64.86
2023-03-04T09:33:26.256Z,63.41
2023-03-04T09:38:27.759Z,62.71
2023-03-04T09:43:30.673Z,59.84
2023-03-04T09:48:43.149Z,59.91
2023-03-04T09:53:53.104Z,58.97
2023-03-04T09:59:24.034Z,58.15
2023-03-04T10:04:31.189Z,58.63
2023-03-04T10:09:49.428Z,57.53
2023-03-04T10:15:16.997Z,57.16
2023-03-04T10:20:24.845Z,55.54
2023-03-04T10:25:33.339Z,54.96
2023-03-04T10:30:57.893Z,53.90
2023-03-04T10:36:22.288Z,51.65
2023-03-04T10:41:25.828Z,49.61
2023-03-04T10:46:27.485Z,47.37
2023-03-04T10:51:30.182Z,45.91
2023-03-04T10:56:36.351Z,46.28
2023-03-04T11:01:38.072Z,48.34
2023-03-04T11:06:42.546Z,48.81
2023-03-04T11:11:44.496Z,50.43
2023-03-04T11:16:54.640Z,48.61
2023-03-04T11:21:57.909Z,46.55
2023-03-04T11:27:13.051Z,44.40
2023-03-04T11:32:20.805Z,45.40
2023-03-04T11:37:45.688Z,43.42
2023-03-04T11:42:54.006Z,44.21
2023-03-04T11:47:55.448Z,43.01
2023-03-04T11:53:19.946Z,42.90
2023-03-04T11:58:38.104Z,42.39
2023-03-04T12:03:57.473Z,44.37
2023-03-04T12:09:14.352Z,44.54
2023-03-04T12:14:38.539Z,44.14
2023-03-04T12:19:53.941Z,44.47
2023-03-04T12:25:29.241Z,46.30
2023-03-04T12:30:58.588Z,49.39
2023-03-04T12:36:06.510Z,49.90
2023-03-04T12:41:29.805Z,50.20
2023-03-04T12:46:49.263Z,50.40
2023-03-04T12:52:12.227Z,50.52
2023-03-04T12:57:24.069Z,50.30
2023-03-04T13:02:39.338Z,50.64
2023-03-04T13:08:12.544Z,49.85
2023-03-04T13:13:41.320Z,48.40
2023-03-04T13:18:42.861Z,47.43
2023-03-04T13:23:44.414Z,45.81
2023-03-04T13:28:46.101Z,45.99
2023-03-04T13:33:53.957Z,45.12
2023-03-04T13:39:03.455Z,44.56
2023-03-04T13:44:32.849Z,44.92
2023-03-04T13:49:34.407Z,44.80
2023-03-04T13:54:35.909Z,43.11
2023-03-04T13:59:42.944Z,43.64
2023-03-04T14:04:46.517Z,44.21
2023-03-04T14:10:06.963Z,43.82
2023-03-04T14:15:20.953Z,43.06
2023-03-04T14:20:34.055Z,42.14
2023-03-04T14:25:37.268Z,42.87
2023-03-04T14:30:43.728Z,43.69
2023-03-04T14:35:48.845Z,42.75
2023-03-04T14:41:00.683Z,40.95
2023-03-04T14:46:03.438Z,39.52
2023-03-04T14:51:05.084Z,41.53
2023-03-04T14:56:09.450Z,41.61
2023-03-04T15:01:22.856Z,41.10
2023-03-04T15:06:26.799Z,40.14
2023-03-04T15:11:32.675Z,40.56
2023-03-04T15:16:54.925Z,42.89
2023-03-04T15:22:05.281Z,44.77
2023-03-04T15:27:11.991Z,45.51
2023-03-04T15:32:13.605Z,45.15
2023-03-04T15:37:22.083Z,44.67
2023-03-04T15:42:23.781Z,43.92
2023-03-04T15:47:25.301Z,42.84
2023-03-04T15:52:26.766Z,42.65
2023-03-04T15:57:28.296Z,41.34
2023-03-04T16:02:29.775Z,42.89
2023-03-04T16:07:31.367Z,43.72
2023-03-04T16:12:33.523Z,44.37
2023-03-04T16:17:35.059Z,45.54
2023-03-04T16:22:37.118Z,46.47
2023-03-04T16:27:39.334Z,47.44
2023-03-04T16:32:41.059Z,48.38
2023-03-04T16:37:43.467Z,48.74
2023-03-04T16:42:44.969Z,49.51
2023-03-04T16:47:46.756Z,49.40
2023-03-04T16:52:49.803Z,50.06
2023-03-04T16:57:52.713Z,50.31
2023-03-04T17:02:56.953Z,51.26
2023-03-04T17:07:58.885Z,51.52
2023-03-04T17:13:00.349Z,51.87
2023-03-04T17:18:01.814Z,51.77
2023-03-04T17:23:03.312Z,51.92
2023-03-04T17:28:05.037Z,52.18
2023-03-04T17:33:06.540Z,53.94
2023-03-04T17:38:08.191Z,55.05
2023-03-04T17:43:09.816Z,54.86
2023-03-04T17:48:12.045Z,56.00
2023-03-04T17:53:13.530Z,56.39
2023-03-04T17:58:14.979Z,55.94
2023-03-04T18:03:16.519Z,57.42
2023-03-04T18:08:18.068Z,57.39
2023-03-04T18:13:19.617Z,57.17
2023-03-04T18:18:21.567Z,56.63
2023-03-04T18:23:23.008Z,56.72
2023-03-04T18:28:24.901Z,55.98
2023-03-04T18:33:28.812Z,56.36
2023-03-04T18:38:30.254Z,56.25
2023-03-04T18:43:31.751Z,56.24
2023-03-04T18:48:38.310Z,57.13
2023-03-04T18:53:39.944Z,57.45
2023-03-04T18:58:45.535Z,56.90
2023-03-04T19:03:47.741Z,57.84
2023-03-04T19:08:49.209Z,56.73
2023-03-04T19:13:53.770Z,56.99
2023-03-04T19:18:55.356Z,55.87
2023-03-04T19:23:56.878Z,54.64
2023-03-04T19:28:58.332Z,53.81
2023-03-04T19:34:00.014Z,53.86
2023-03-04T19:39:01.627Z,53.34
2023-03-04T19:44:03.115Z,53.61
2023-03-04T19:49:04.935Z,52.82
2023-03-04T19:54:06.387Z,52.53
2023-03-04T19:59:07.884Z,53.03
2023-03-04T20:04:13.338Z,53.23
2023-03-04T20:09:16.048Z,52.91
2023-03-04T20:14:17.574Z,53.81
2023-03-04T20:19:19.038Z,53.86
2023-03-04T20:24:20.488Z,53.75
2023-03-04T20:29:22.648Z,53.43
2023-03-04T20:34:24.299Z,52.70
2023-03-04T20:39:29.540Z,53.14
2023-03-04T20:44:31.352Z,53.00
2023-03-04T20:49:32.836Z,53.48
2023-03-04T20:54:38.107Z,53.24
2023-03-04T20:59:40.708Z,53.59
2023-03-04T21:04:42.718Z,53.42
2023-03-04T21:09:44.292Z,53.23
2023-03-04T21:14:46.158Z,53.50
2023-03-04T21:19:47.601Z,53.72
2023-03-04T21:24:49.038Z,54.34
2023-03-04T21:29:50.483Z,54.25
2023-03-04T21:34:54.288Z,54.36
2023-03-04T21:39:55.861Z,54.16
2023-03-04T21:44:57.345Z,54.31
2023-03-04T21:49:58.799Z,54.28
2023-03-04T21:55:00.372Z,54.62
2023-03-04T22:00:01.929Z,54.54
2023-03-04T22:05:13.312Z,54.44
2023-03-04T22:10:14.980Z,54.75
2023-03-04T22:15:16.499Z,54.30
2023-03-04T22:20:18.070Z,55.00
2023-03-04T22:25:19.593Z,54.54
2023-03-04T22:30:21.867Z,55.18
2023-03-04T22:35:23.408Z,54.86
2023-03-04T22:40:24.952Z,54.98
2023-03-04T22:45:26.472Z,54.26
2023-03-04T22:50:28.268Z,54.65
2023-03-04T22:55:29.695Z,55.98
2023-03-04T23:00:32.005Z,55.18
2023-03-04T23:05:33.494Z,55.70
2023-03-04T23:10:34.936Z,54.86
2023-03-04T23:15:36.383Z,54.43
2023-03-04T23:20:37.858Z,54.71
2023-03-04T23:25:39.449Z,55.29
2023-03-04T23:30:40.934Z,55.21
2023-03-04T23:35:42.458Z,55.33
2023-03-04T23:40:44.034Z,55.33
2023-03-04T23:45:45.598Z,55.37
2023-03-04T23:50:51.679Z,55.63
2023-03-04T23:55:53.233Z,55.72
